Time;durP1;ratioP1;P1;durP2;ratioP2;P2;SDS_P1;SDS_P2;PMS_P1;PMS_P2;Temp;Humidity;BMP_temperature;BMP_pressure;BME280_temperature;BME280_humidity;BME280_pressure;Samples;Min_cycle;Max_cycle;Signal;HPM_P1;HPM_P2
2021/04/03 00:01:56;;;;;;;3.53;2.10;;;19.20;54.20;;;;;;5123351;28;20450;-41
2021/04/03 00:04:26;;;;;;;4.47;2.33;;;19.00;53.80;;;;;;5123320;28;20435;-41
2021/04/03 00:06:56;;;;;;;5.20;2.43;;;18.90;55.80;;;;;;5123208;28;20471;-41
2021/04/03 00:09:26;;;;;;;2.57;2.00;;;18.90;56.50;;;;;;5123703;28;20507;-42
2021/04/03 00:11:57;;;;;;;2.33;1.70;;;19.00;55.20;;;;;;5123156;28;20420;-40
2021/04/03 00:14:27;;;;;;;3.70;1.93;;;18.90;56.20;;;;;;5123261;28;20424;-41
2021/04/03 00:16:57;;;;;;;2.73;1.93;;;19.00;55.80;;;;;;5123517;28;20438;-41
2021/04/03 00:19:27;;;;;;;2.20;2.00;;;19.10;55.90;;;;;;5123786;28;20456;-41
2021/04/03 00:21:58;;;;;;;2.83;2.27;;;19.00;55.70;;;;;;5123252;28;20421;-41
2021/04/03 00:24:28;;;;;;;2.03;1.83;;;19.00;56.00;;;;;;5123252;28;20424;-41
2021/04/03 00:26:59;;;;;;;2.93;1.93;;;19.10;56.80;;;;;;5122265;28;20466;-40
2021/04/03 00:29:29;;;;;;;4.13;2.30;;;19.00;56.80;;;;;;5123320;28;20932;-41
2021/04/03 00:31:59;;;;;;;2.10;1.93;;;18.90;56.10;;;;;;5123261;28;20412;-41
2021/04/03 00:34:29;;;;;;;2.83;2.20;;;18.80;54.80;;;;;;5123537;28;20522;-41
2021/04/03 00:36:59;;;;;;;4.03;2.53;;;18.70;57.20;;;;;;5123004;28;20791;-41
2021/04/03 00:39:29;;;;;;;2.90;2.27;;;18.60;56.50;;;;;;5123358;28;20424;-43
2021/04/03 00:42:11;;;;;;;2.97;1.87;;;18.40;55.40;;;;;;5121943;28;20460;-43
2021/04/03 00:44:44;;;;;;;2.90;1.90;;;18.30;55.70;;;;;;5122774;28;20476;-40
2021/04/03 00:47:14;;;;;;;2.93;1.70;;;18.10;57.90;;;;;;5122628;28;20480;-41
2021/04/03 00:49:45;;;;;;;2.80;2.00;;;18.00;58.70;;;;;;5122369;28;20445;-41
2021/04/03 00:52:15;;;;;;;3.03;2.60;;;18.00;58.80;;;;;;5122445;28;20445;-41
2021/04/03 00:54:45;;;;;;;3.67;2.47;;;18.00;58.60;;;;;;5122501;28;20480;-41
2021/04/03 00:57:18;;;;;;;4.30;2.43;;;18.00;59.30;;;;;;5122175;28;20816;-41
2021/04/03 00:59:48;;;;;;;3.00;1.93;;;17.90;60.00;;;;;;5122989;28;20437;-41
2021/04/03 01:02:18;;;;;;;2.13;1.80;;;18.00;59.10;;;;;;5123082;28;20410;-41
2021/04/03 01:04:48;;;;;;;1.83;1.40;;;17.90;60.40;;;;;;5122732;28;20442;-41
2021/04/03 01:07:19;;;;;;;3.43;2.50;;;17.90;60.40;;;;;;5122423;28;20510;-41
2021/04/03 01:09:49;;;;;;;5.10;2.10;;;18.00;60.80;;;;;;5122528;28;20421;-42
2021/04/03 01:12:29;;;;;;;4.80;2.10;;;18.00;59.50;;;;;;5122374;28;20424;-41
2021/04/03 01:15:09;;;;;;;6.73;3.60;;;17.90;59.50;;;;;;5121504;28;20476;-41
2021/04/03 01:17:54;;;;;;;3.60;3.30;;;17.80;62.00;;;;;;5121998;28;20461;-41
2021/04/03 01:20:48;;;;;;;2.50;2.30;;;17.70;62.80;;;;;;5122022;28;20440;-41
2021/04/03 01:23:44;;;;;;;2.00;1.77;;;17.80;61.90;;;;;;5122703;28;20460;-38
2021/04/03 01:26:46;;;;;;;2.30;2.10;;;17.70;63.50;;;;;;5121594;28;20468;-41
2021/04/03 01:30:00;;;;;;;4.57;2.03;;;17.60;63.70;;;;;;5122867;28;20580;-41
2021/04/03 01:32:37;;;;;;;3.40;2.00;;;17.40;65.60;;;;;;5122868;28;20437;-41
2021/04/03 01:35:10;;;;;;;2.37;2.10;;;17.20;67.30;;;;;;5122602;28;20462;-40
2021/04/03 01:37:48;;;;;;;5.33;3.30;;;17.10;68.00;;;;;;5121302;28;20452;-41
2021/04/03 01:40:24;;;;;;;5.10;3.40;;;17.00;69.30;;;;;;5122103;28;20461;-41
2021/04/03 01:43:02;;;;;;;4.00;3.63;;;16.90;69.80;;;;;;5119702;28;20483;-39
2021/04/03 01:45:35;;;;;;;2.80;2.60;;;16.80;70.10;;;;;;5121381;28;20448;-41
2021/04/03 01:48:09;;;;;;;4.30;3.00;;;16.80;69.20;;;;;;5122282;28;20497;-40
2021/04/03 01:50:41;;;;;;;2.70;2.07;;;16.80;69.90;;;;;;5120861;28;20539;-40
2021/04/03 01:53:12;;;;;;;4.07;3.67;;;16.60;70.40;;;;;;5123552;28;20457;-41
2021/04/03 01:55:42;;;;;;;2.80;2.30;;;16.50;70.70;;;;;;5126315;28;20419;-41
2021/04/03 01:58:12;;;;;;;2.67;2.47;;;16.50;68.80;;;;;;5125804;28;20446;-40
2021/04/03 02:00:43;;;;;;;3.50;2.47;;;16.40;70.70;;;;;;5125707;28;20580;-40
2021/04/03 02:03:15;;;;;;;2.93;2.40;;;16.40;70.10;;;;;;5126192;28;20805;-40
2021/04/03 02:05:49;;;;;;;2.60;2.30;;;16.40;69.90;;;;;;5125727;28;20455;-40
2021/04/03 02:08:20;;;;;;;2.30;2.10;;;16.30;70.60;;;;;;5126503;28;21056;-39
2021/04/03 02:10:52;;;;;;;4.63;3.47;;;16.20;70.70;;;;;;5125616;28;20451;-40
2021/04/03 02:13:22;;;;;;;3.37;2.57;;;16.20;69.90;;;;;;5125378;28;20451;-39
2021/04/03 02:15:55;;;;;;;3.23;2.90;;;16.10;70.30;;;;;;5125915;28;20464;-40
2021/04/03 02:18:27;;;;;;;5.20;4.50;;;16.00;71.00;;;;;;5126461;28;20469;-41
2021/04/03 02:20:59;;;;;;;4.23;3.80;;;16.00;71.80;;;;;;5124829;28;20451;-41
2021/04/03 02:23:29;;;;;;;3.33;3.03;;;15.90;72.50;;;;;;5125618;28;20446;-41
2021/04/03 02:26:00;;;;;;;5.97;4.23;;;15.80;73.00;;;;;;5125613;28;20449;-41
2021/04/03 02:28:30;;;;;;;4.10;3.80;;;15.80;73.40;;;;;;5124125;28;20486;-39
2021/04/03 02:31:00;;;;;;;4.80;4.40;;;15.70;73.80;;;;;;5125559;28;20936;-40
2021/04/03 02:33:31;;;;;;;5.20;4.73;;;15.60;76.30;;;;;;5125776;28;20507;-40
2021/04/03 02:36:02;;;;;;;4.50;4.20;;;15.40;77.70;;;;;;5126722;27;20461;-40
2021/04/03 02:38:32;;;;;;;4.13;3.80;;;15.40;76.70;;;;;;5126046;28;20557;-41
2021/04/03 02:41:04;;;;;;;5.27;4.77;;;15.40;77.40;;;;;;5123581;28;20458;-38
2021/04/03 02:43:42;;;;;;;3.03;2.83;;;15.30;78.50;;;;;;5122665;28;20470;-40
2021/04/03 02:46:19;;;;;;;5.20;3.73;;;15.20;80.10;;;;;;5125216;28;20496;-39
2021/04/03 02:48:54;;;;;;;10.13;5.17;;;15.10;80.30;;;;;;5123734;28;20485;-40
2021/04/03 02:51:29;;;;;;;4.50;3.27;;;15.10;81.10;;;;;;5124534;28;20479;-39
2021/04/03 02:54:01;;;;;;;7.27;2.70;;;15.00;82.00;;;;;;5125207;28;20450;-39
2021/04/03 02:56:32;;;;;;;2.60;2.40;;;14.80;83.60;;;;;;5124892;28;20446;-40
2021/04/03 02:59:03;;;;;;;2.20;2.00;;;14.80;84.00;;;;;;5124107;28;20535;-41
2021/04/03 03:01:35;;;;;;;3.60;3.30;;;14.70;85.20;;;;;;5123593;28;20453;-39
2021/04/03 03:04:09;;;;;;;3.03;2.73;;;14.60;86.10;;;;;;5125149;28;20451;-40
2021/04/03 03:06:41;;;;;;;3.20;2.37;;;14.50;86.40;;;;;;5124852;28;20445;-40
2021/04/03 03:09:12;;;;;;;2.97;2.67;;;14.50;86.70;;;;;;5124921;28;20518;-40
2021/04/03 03:11:44;;;;;;;3.00;2.17;;;14.40;87.40;;;;;;5123813;28;20457;-40
2021/04/03 03:14:15;;;;;;;3.50;2.37;;;14.30;88.30;;;;;;5125153;28;20449;-40
2021/04/03 03:17:03;;;;;;;2.90;2.70;;;14.30;88.60;;;;;;5124711;28;20981;-39
2021/04/03 03:19:35;;;;;;;3.80;3.00;;;14.20;89.80;;;;;;5124009;28;20430;-40
2021/04/03 03:22:05;;;;;;;3.20;2.90;;;14.10;91.00;;;;;;5125131;28;20495;-41
2021/04/03 03:24:36;;;;;;;4.40;4.10;;;14.00;91.60;;;;;;5111353;28;20446;-40
2021/04/03 03:27:08;;;;;;;4.80;4.23;;;14.00;92.40;;;;;;5124129;28;20917;-40
2021/04/03 03:29:40;;;;;;;3.80;3.50;;;13.90;93.20;;;;;;5125250;28;20453;-39
2021/04/03 03:32:10;;;;;;;4.70;4.30;;;13.90;93.60;;;;;;5124667;28;20519;-40
2021/04/03 03:34:41;;;;;;;6.53;6.03;;;13.80;93.70;;;;;;5111848;28;20506;-40
2021/04/03 03:37:12;;;;;;;8.37;7.53;;;13.70;94.50;;;;;;5123941;28;20565;-41
2021/04/03 03:39:43;;;;;;;8.10;7.30;;;13.70;95.50;;;;;;5124648;28;20453;-36
2021/04/03 03:42:14;;;;;;;4.20;3.80;;;13.60;95.70;;;;;;5122142;28;20481;-38
2021/04/03 03:44:45;;;;;;;3.13;2.80;;;13.60;96.00;;;;;;5120913;28;20469;-41
2021/04/03 03:47:15;;;;;;;4.30;2.43;;;13.50;95.90;;;;;;5124088;28;20441;-41
2021/04/03 03:49:46;;;;;;;2.70;2.50;;;13.50;96.30;;;;;;5124445;28;20947;-41
2021/04/03 03:52:16;;;;;;;3.93;2.47;;;13.50;96.80;;;;;;5123136;28;20507;-41
2021/04/03 03:54:47;;;;;;;7.30;3.43;;;13.40;96.90;;;;;;5124220;28;20483;-41
2021/04/03 03:57:17;;;;;;;2.07;1.97;;;13.40;96.70;;;;;;5123467;28;20491;-42
2021/04/03 03:59:47;;;;;;;4.10;2.50;;;13.30;96.60;;;;;;5124426;28;20468;-43
2021/04/03 04:02:17;;;;;;;2.57;2.10;;;13.30;97.10;;;;;;5122794;28;20510;-42
2021/04/03 04:04:48;;;;;;;2.47;2.27;;;13.20;97.20;;;;;;5123837;28;20499;-42
2021/04/03 04:07:18;;;;;;;2.30;2.10;;;13.20;97.60;;;;;;5123539;28;20454;-42
2021/04/03 04:09:48;;;;;;;3.10;1.90;;;13.10;97.90;;;;;;5123954;28;20503;-40
2021/04/03 04:12:18;;;;;;;2.87;2.10;;;13.10;97.90;;;;;;5122559;28;20494;-40
2021/04/03 04:14:48;;;;;;;4.97;2.33;;;13.00;98.30;;;;;;5122847;28;20445;-39
2021/04/03 04:17:18;;;;;;;2.20;1.90;;;12.90;99.00;;;;;;5122883;28;20440;-40
2021/04/03 04:19:50;;;;;;;2.30;2.10;;;12.90;98.80;;;;;;5124397;28;20935;-41
2021/04/03 04:22:20;;;;;;;2.70;1.73;;;12.90;98.70;;;;;;5123198;28;20811;-39
2021/04/03 04:24:49;;;;;;;2.10;1.90;;;12.90;98.50;;;;;;5123070;28;20483;-41
2021/04/03 04:27:19;;;;;;;2.40;2.00;;;12.80;98.70;;;;;;5120992;28;20487;-39
2021/04/03 04:29:49;;;;;;;2.63;1.83;;;12.70;98.80;;;;;;5123291;28;20460;-41
2021/04/03 04:32:19;;;;;;;1.90;1.80;;;12.70;99.10;;;;;;5110763;28;20509;-40
2021/04/03 04:34:51;;;;;;;4.07;2.50;;;12.60;99.20;;;;;;5123408;28;20519;-40
2021/04/03 04:37:21;;;;;;;3.53;1.80;;;12.60;99.50;;;;;;5122854;28;20449;-41
2021/04/03 04:39:51;;;;;;;1.80;1.70;;;12.50;99.60;;;;;;5123452;28;20453;-39
2021/04/03 04:42:21;;;;;;;2.30;2.10;;;12.40;99.90;;;;;;5121744;28;20483;-41
2021/04/03 04:44:52;;;;;;;3.17;2.57;;;12.40;99.90;;;;;;5122918;28;20537;-40
2021/04/03 04:47:22;;;;;;;2.13;1.97;;;12.30;99.90;;;;;;5122952;28;20511;-40
2021/04/03 04:49:54;;;;;;;2.60;2.00;;;12.30;99.90;;;;;;5119837;28;20473;-40
2021/04/03 04:52:24;;;;;;;6.30;1.90;;;12.30;99.90;;;;;;5117925;28;20452;-38
2021/04/03 04:54:54;;;;;;;2.80;1.93;;;12.20;99.90;;;;;;5123300;28;20467;-38
2021/04/03 04:57:24;;;;;;;2.77;1.97;;;12.20;99.90;;;;;;5121032;28;20482;-41
2021/04/03 04:59:55;;;;;;;3.67;1.83;;;12.20;99.90;;;;;;5123158;28;20469;-39
2021/04/03 05:02:25;;;;;;;3.55;2.45;;;12.10;99.90;;;;;;5122449;28;20224;-41
2021/04/03 05:04:56;;;;;;;2.47;1.88;;;12.10;99.90;;;;;;5123146;28;20201;-41
2021/04/03 05:07:26;;;;;;;3.10;1.87;;;12.10;99.90;;;;;;5121839;28;20198;-40
2021/04/03 05:09:56;;;;;;;2.33;1.90;;;12.10;99.90;;;;;;5122805;28;20443;-41
2021/04/03 05:12:26;;;;;;;2.20;2.00;;;12.00;99.90;;;;;;5122300;28;20445;-40
2021/04/03 05:14:56;;;;;;;3.17;1.67;;;12.00;99.90;;;;;;5123389;28;20501;-41
2021/04/03 05:17:26;;;;;;;2.33;2.13;;;12.00;99.90;;;;;;5123113;28;20502;-40
2021/04/03 05:19:57;;;;;;;2.87;2.00;;;12.00;99.90;;;;;;5112544;28;20199;-40
2021/04/03 05:22:27;;;;;;;3.53;1.87;;;11.90;99.90;;;;;;5122358;28;20478;-41
2021/04/03 05:24:57;;;;;;;3.10;2.23;;;11.90;99.90;;;;;;5122515;28;20482;-40
2021/04/03 05:27:27;;;;;;;4.18;2.30;;;11.90;99.90;;;;;;5123856;28;20468;-40
2021/04/03 05:29:57;;;;;;;3.73;2.57;;;11.90;99.90;;;;;;5127489;28;20197;-41
2021/04/03 05:32:27;;;;;;;2.30;1.90;;;11.80;99.90;;;;;;5125653;28;20464;-41
2021/04/03 05:34:58;;;;;;;2.60;1.95;;;11.70;99.90;;;;;;5125153;28;20463;-41
2021/04/03 05:37:28;;;;;;;2.53;2.33;;;11.70;99.90;;;;;;5126380;28;20241;-41
2021/04/03 05:39:58;;;;;;;3.23;2.30;;;11.80;99.90;;;;;;5126902;28;20449;-41
2021/04/03 05:42:34;;;;;;;2.05;1.85;;;11.70;99.90;;;;;;5125487;28;20458;-42
2021/04/03 05:45:06;;;;;;;2.50;2.30;;;11.70;99.90;;;;;;5126309;28;20202;-42
2021/04/03 05:47:36;;;;;;;3.37;2.67;;;11.60;99.90;;;;;;5125433;28;20464;-42
2021/04/03 05:50:09;;;;;;;2.38;2.20;;;11.60;99.90;;;;;;5126201;28;20444;-43
2021/04/03 05:52:40;;;;;;;4.00;2.70;;;11.50;99.90;;;;;;5125914;28;20210;-42
2021/04/03 05:55:11;;;;;;;2.75;2.45;;;11.50;99.90;;;;;;5126336;28;20597;-42
2021/04/03 05:57:42;;;;;;;2.60;2.40;;;11.50;99.90;;;;;;5125411;28;20234;-41
2021/04/03 06:00:14;;;;;;;1.97;1.87;;;11.40;99.90;;;;;;5126494;28;20223;-40
2021/04/03 06:02:44;;;;;;;2.63;1.75;;;11.40;99.90;;;;;;5125097;28;20504;-41
2021/04/03 06:05:15;;;;;;;2.77;2.57;;;11.40;99.90;;;;;;5125321;28;20278;-41
2021/04/03 06:07:46;;;;;;;2.33;2.00;;;11.40;99.90;;;;;;5125921;28;20444;-43
2021/04/03 06:10:16;;;;;;;4.80;2.23;;;11.30;99.90;;;;;;5126269;28;20230;-41
2021/04/03 06:12:47;;;;;;;3.97;2.35;;;11.30;99.90;;;;;;5124590;28;20442;-41
2021/04/03 06:15:36;;;;;;;2.72;2.40;;;11.30;99.90;;;;;;5125779;28;20205;-40
2021/04/03 06:18:11;;;;;;;2.72;2.53;;;11.20;99.90;;;;;;5125581;28;20202;-41
2021/04/03 06:20:44;;;;;;;3.73;2.50;;;11.20;99.90;;;;;;5126288;28;20264;-41
2021/04/03 06:23:14;;;;;;;2.80;2.60;;;11.20;99.90;;;;;;5125525;28;20501;-41
2021/04/03 06:25:57;;;;;;;3.08;2.63;;;11.00;99.90;;;;;;5126022;28;20207;-43
2021/04/03 06:28:28;;;;;;;3.15;2.50;;;11.00;99.90;;;;;;5124745;28;20267;-41
2021/04/03 06:31:00;;;;;;;3.42;3.10;;;10.90;99.90;;;;;;5125670;28;20212;-41
2021/04/03 06:33:30;;;;;;;3.10;2.15;;;10.80;99.90;;;;;;5122656;28;20202;-40
2021/04/03 06:36:09;;;;;;;2.73;2.53;;;10.70;99.90;;;;;;5125032;28;20201;-41
2021/04/03 06:38:40;;;;;;;3.00;2.60;;;10.80;99.90;;;;;;5124896;28;20448;-41
2021/04/03 06:41:19;;;;;;;4.67;2.30;;;10.90;99.90;;;;;;5125774;28;20197;-41
2021/04/03 06:44:03;;;;;;;2.65;1.98;;;10.80;99.90;;;;;;5125170;28;20551;-40
2021/04/03 06:46:33;;;;;;;4.57;1.98;;;10.80;99.90;;;;;;5125070;28;20209;-41
2021/04/03 06:49:05;;;;;;;2.70;1.90;;;10.80;99.90;;;;;;5122241;28;20375;-41
2021/04/03 06:51:37;;;;;;;2.28;1.90;;;10.80;99.90;;;;;;5125395;28;20660;-41
2021/04/03 06:54:09;;;;;;;2.77;1.53;;;10.80;99.90;;;;;;5124959;28;20270;-41
2021/04/03 06:56:40;;;;;;;2.67;2.13;;;10.80;99.90;;;;;;5124290;28;20432;-40
2021/04/03 06:59:11;;;;;;;2.17;1.98;;;10.80;99.90;;;;;;5114456;28;20563;-41
2021/04/03 07:01:55;;;;;;;3.85;2.22;;;10.70;99.90;;;;;;5124807;28;20193;-41
2021/04/03 07:04:29;;;;;;;2.45;2.20;;;10.70;99.90;;;;;;5124545;28;20288;-42
2021/04/03 07:07:00;;;;;;;3.20;2.35;;;10.70;99.90;;;;;;5124896;28;20204;-41
2021/04/03 07:09:31;;;;;;;2.03;1.83;;;10.60;99.90;;;;;;5125009;28;20337;-41
2021/04/03 07:12:01;;;;;;;2.47;2.22;;;10.50;99.90;;;;;;5124443;28;20271;-41
2021/04/03 07:14:32;;;;;;;2.17;1.98;;;10.50;99.90;;;;;;5124625;28;20202;-40
2021/04/03 07:17:04;;;;;;;3.97;2.00;;;10.40;99.90;;;;;;5124608;28;20203;-43
2021/04/03 07:19:37;;;;;;;2.42;2.22;;;10.40;99.90;;;;;;5125063;28;20526;-41
2021/04/03 07:22:08;;;;;;;2.33;2.00;;;10.40;99.90;;;;;;5124674;28;20244;-39
2021/04/03 07:24:39;;;;;;;2.73;2.50;;;10.30;99.90;;;;;;5123958;28;20571;-42
2021/04/03 07:27:10;;;;;;;3.92;2.25;;;10.20;99.90;;;;;;5113700;28;20494;-40
2021/04/03 07:29:48;;;;;;;2.70;2.50;;;10.20;99.90;;;;;;5124521;28;20668;-40
2021/04/03 07:32:37;;;;;;;2.75;2.28;;;10.20;99.90;;;;;;5124731;28;20265;-41
2021/04/03 07:35:31;;;;;;;3.20;2.20;;;10.10;99.90;;;;;;5123780;28;20250;-41
2021/04/03 07:38:09;;;;;;;2.13;1.92;;;10.10;99.90;;;;;;5101897;28;20201;-40
2021/04/03 07:40:42;;;;;;;3.03;2.47;;;10.00;99.90;;;;;;5121397;28;20208;-40
2021/04/03 07:43:41;;;;;;;3.25;2.33;;;10.00;99.90;;;;;;5123047;28;20228;-41
2021/04/03 07:46:36;;;;;;;3.08;2.35;;;9.90;99.90;;;;;;5123952;28;20367;-41
2021/04/03 07:49:06;;;;;;;2.78;1.95;;;9.80;99.90;;;;;;5123619;28;20232;-40
2021/04/03 07:51:49;;;;;;;4.60;2.67;;;9.60;99.90;;;;;;5124237;28;20189;-41
2021/04/03 07:54:31;;;;;;;2.50;2.22;;;9.60;99.90;;;;;;5123972;28;20234;-40
2021/04/03 07:57:07;;;;;;;7.22;2.63;;;9.50;99.90;;;;;;5122793;28;20204;-40
2021/04/03 07:59:53;;;;;;;3.08;2.30;;;9.40;99.90;;;;;;5124201;28;20196;-40
2021/04/03 08:02:26;;;;;;;3.42;2.10;;;9.30;99.90;;;;;;5123614;28;20196;-41
2021/04/03 08:04:59;;;;;;;2.42;2.22;;;9.40;99.90;;;;;;5123672;28;20717;-41
2021/04/03 08:07:29;;;;;;;4.03;2.33;;;9.40;99.90;;;;;;5123405;28;20567;-40
2021/04/03 08:10:00;;;;;;;2.47;2.28;;;9.30;99.90;;;;;;5122841;28;20251;-41
2021/04/03 08:12:31;;;;;;;3.55;2.65;;;9.30;99.90;;;;;;5122805;28;20189;-40
2021/04/03 08:15:01;;;;;;;4.32;2.60;;;9.20;99.90;;;;;;5123585;28;20204;-40
2021/04/03 08:17:32;;;;;;;2.60;2.40;;;9.20;99.90;;;;;;5123066;28;20200;-40
2021/04/03 08:20:02;;;;;;;3.20;2.33;;;9.10;99.90;;;;;;5113663;28;20216;-40
2021/04/03 08:22:32;;;;;;;3.53;2.50;;;9.10;99.90;;;;;;5123261;28;20192;-40
2021/04/03 08:25:04;;;;;;;3.08;2.58;;;9.00;99.90;;;;;;5123492;28;20261;-39
2021/04/03 08:27:38;;;;;;;3.85;3.00;;;8.90;99.90;;;;;;5122568;28;20204;-42
2021/04/03 08:30:22;;;;;;;2.95;2.63;;;8.90;99.90;;;;;;5123655;28;20314;-43
2021/04/03 08:33:13;;;;;;;4.30;3.90;;;8.90;99.90;;;;;;5123399;28;20208;-39
2021/04/03 08:35:44;;;;;;;4.05;3.15;;;8.80;99.90;;;;;;5121187;28;20513;-41
2021/04/03 08:38:17;;;;;;;3.40;3.10;;;8.80;99.90;;;;;;5123056;28;20197;-41
2021/04/03 08:40:49;;;;;;;5.20;3.20;;;8.80;99.90;;;;;;5123461;28;20192;-41
2021/04/03 08:43:26;;;;;;;4.05;2.92;;;8.70;99.90;;;;;;5122913;28;20236;-41
2021/04/03 08:46:04;;;;;;;3.40;3.10;;;8.70;99.90;;;;;;5122394;28;20200;-39
2021/04/03 08:48:35;;;;;;;3.22;2.63;;;8.70;99.90;;;;;;5121857;28;20230;-41
2021/04/03 08:51:07;;;;;;;2.90;2.70;;;8.60;99.90;;;;;;5122662;28;20201;-41
2021/04/03 08:53:42;;;;;;;3.20;2.70;;;8.70;99.90;;;;;;5122024;28;20200;-41
2021/04/03 08:56:19;;;;;;;4.57;2.75;;;8.60;99.90;;;;;;5122588;28;20245;-41
2021/04/03 08:58:49;;;;;;;2.53;2.30;;;8.50;99.90;;;;;;5122706;28;20188;-40
2021/04/03 09:01:21;;;;;;;4.20;2.78;;;8.50;99.90;;;;;;5120827;28;20290;-41
2021/04/03 09:03:55;;;;;;;6.97;3.17;;;8.50;99.90;;;;;;5129619;28;20225;-41
2021/04/03 09:06:46;;;;;;;2.92;2.60;;;8.50;99.90;;;;;;5129435;28;20199;-41
2021/04/03 09:09:20;;;;;;;5.53;2.97;;;8.40;99.90;;;;;;5122863;28;20234;-41
2021/04/03 09:11:58;;;;;;;3.20;3.00;;;8.40;99.90;;;;;;5129065;28;20200;-40
2021/04/03 09:14:31;;;;;;;5.00;2.78;;;8.30;99.90;;;;;;5129384;28;20252;-40
2021/04/03 09:17:03;;;;;;;3.85;2.65;;;8.30;99.90;;;;;;5129063;28;20299;-41
2021/04/03 09:19:35;;;;;;;3.97;3.05;;;8.30;99.90;;;;;;5130560;28;20213;-40
2021/04/03 09:22:06;;;;;;;3.35;3.05;;;8.30;99.90;;;;;;5129402;28;20263;-40
2021/04/03 09:24:41;;;;;;;3.30;2.60;;;8.10;99.90;;;;;;5129602;28;20233;-40
2021/04/03 09:27:14;;;;;;;5.30;2.92;;;8.10;99.90;;;;;;5111670;28;20586;-40
2021/04/03 09:29:46;;;;;;;3.20;2.90;;;8.10;99.90;;;;;;5118047;28;20219;-40
2021/04/03 09:32:17;;;;;;;5.63;2.85;;;8.00;99.90;;;;;;5129252;28;20184;-40
2021/04/03 09:34:47;;;;;;;3.60;3.15;;;7.90;99.90;;;;;;5129820;28;20188;-41
2021/04/03 09:37:19;;;;;;;3.22;2.90;;;7.90;99.90;;;;;;5128824;28;20196;-40
2021/04/03 09:39:51;;;;;;;3.55;2.83;;;7.90;99.90;;;;;;5129952;28;20203;-40
2021/04/03 09:42:24;;;;;;;2.83;2.50;;;7.90;99.90;;;;;;5128816;28;20268;-40
2021/04/03 09:45:13;;;;;;;4.88;3.67;;;7.90;99.90;;;;;;5129370;28;20236;-41
2021/04/03 09:47:43;;;;;;;2.88;2.05;;;8.00;99.90;;;;;;5128657;28;20188;-39
2021/04/03 09:50:14;;;;;;;4.20;2.75;;;7.90;99.90;;;;;;5121765;28;20261;-40
2021/04/03 09:52:44;;;;;;;4.55;2.78;;;7.90;99.90;;;;;;5128919;28;20269;-40
2021/04/03 09:55:16;;;;;;;3.58;2.95;;;7.90;99.90;;;;;;5125597;28;20199;-41
2021/04/03 09:57:48;;;;;;;5.85;3.30;;;7.90;99.90;;;;;;5128296;28;20195;-41
2021/04/03 10:00:19;;;;;;;3.47;2.78;;;7.90;99.90;;;;;;5129347;28;20208;-40
2021/04/03 10:02:48;;;;;;;5.70;2.90;;;7.90;99.90;;;;;;5128298;28;20207;-40
2021/04/03 10:05:18;;;;;;;3.78;3.20;;;7.90;99.90;;;;;;5129488;28;20184;-41
2021/04/03 10:07:48;;;;;;;4.00;2.63;;;7.90;99.90;;;;;;5128924;28;20257;-40
2021/04/03 10:10:18;;;;;;;4.53;3.05;;;7.90;99.90;;;;;;5129798;28;20280;-40
2021/04/03 10:12:50;;;;;;;3.53;2.88;;;7.80;99.90;;;;;;5127580;28;20260;-41
2021/04/03 10:15:21;;;;;;;3.83;2.83;;;7.80;99.90;;;;;;5125224;28;20256;-41
2021/04/03 10:17:51;;;;;;;3.10;2.75;;;7.80;99.90;;;;;;5119222;28;20196;-40
2021/04/03 10:20:21;;;;;;;3.63;2.70;;;7.70;99.90;;;;;;5125509;28;20411;-38
2021/04/03 10:22:51;;;;;;;4.00;3.33;;;7.70;99.90;;;;;;5125530;28;20196;-41
2021/04/03 10:25:21;;;;;;;4.10;3.00;;;7.60;99.90;;;;;;5125682;28;20200;-40
2021/04/03 10:27:54;;;;;;;4.15;3.33;;;7.60;99.90;;;;;;5125018;28;20215;-37
2021/04/03 10:30:24;;;;;;;3.92;3.08;;;7.70;99.90;;;;;;5125810;28;20258;-39
2021/04/03 10:32:54;;;;;;;5.95;3.42;;;7.70;99.90;;;;;;5125689;28;20206;-40
2021/04/03 10:35:24;;;;;;;3.85;2.80;;;7.70;99.90;;;;;;5125962;28;20204;-39
2021/04/03 10:37:54;;;;;;;3.38;2.75;;;7.60;99.90;;;;;;5125697;28;20196;-39
2021/04/03 10:40:24;;;;;;;3.88;3.00;;;7.60;99.90;;;;;;5125591;28;20310;-39
2021/04/03 10:42:56;;;;;;;3.72;3.40;;;7.60;99.90;;;;;;5124344;28;20284;-40
2021/04/03 10:45:26;;;;;;;5.40;2.83;;;7.60;99.90;;;;;;5124914;28;20196;-40
2021/04/03 10:47:56;;;;;;;4.55;3.47;;;7.60;99.90;;;;;;5123635;27;20188;-38
2021/04/03 10:50:26;;;;;;;4.40;2.90;;;7.60;99.90;;;;;;5125174;28;20288;-40
2021/04/03 10:52:56;;;;;;;3.65;3.15;;;7.60;99.90;;;;;;5125488;28;20257;-40
2021/04/03 10:55:26;;;;;;;3.50;3.20;;;7.60;99.90;;;;;;5125419;28;20207;-39
2021/04/03 10:57:57;;;;;;;3.55;2.97;;;7.60;99.90;;;;;;5124729;28;20200;-38
2021/04/03 11:00:28;;;;;;;3.38;3.08;;;7.60;99.90;;;;;;5125403;28;20192;-41
2021/04/03 11:02:58;;;;;;;3.67;3.30;;;7.50;99.90;;;;;;5125807;28;20600;-40
2021/04/03 11:05:29;;;;;;;3.72;3.33;;;7.50;99.90;;;;;;5124684;28;20295;-39
2021/04/03 11:07:59;;;;;;;3.95;2.53;;;7.50;99.90;;;;;;5125435;28;20264;-39
2021/04/03 11:10:29;;;;;;;5.18;3.53;;;7.50;99.90;;;;;;5125074;28;20227;-38
2021/04/03 11:13:00;;;;;;;4.60;3.13;;;7.50;99.90;;;;;;5124544;28;20318;-39
2021/04/03 11:15:30;;;;;;;5.03;3.08;;;7.50;99.90;;;;;;5124957;28;20533;-39
2021/04/03 11:18:00;;;;;;;3.47;2.75;;;7.40;99.90;;;;;;5125247;28;20212;-40
2021/04/03 11:20:30;;;;;;;3.05;2.85;;;7.40;99.90;;;;;;5124631;28;20204;-37
2021/04/03 11:23:00;;;;;;;6.35;3.30;;;7.40;99.90;;;;;;5125203;28;20208;-40
2021/04/03 11:25:30;;;;;;;3.83;3.45;;;7.40;99.90;;;;;;5124684;28;20200;-39
2021/04/03 11:28:02;;;;;;;3.60;2.90;;;7.40;99.90;;;;;;5123883;28;20196;-39
2021/04/03 11:30:32;;;;;;;4.25;3.15;;;7.40;99.90;;;;;;5125301;28;20284;-40
2021/04/03 11:33:02;;;;;;;3.83;3.53;;;7.30;99.90;;;;;;5124123;28;20204;-39
2021/04/03 11:35:32;;;;;;;4.05;3.10;;;7.20;99.90;;;;;;5124580;28;20257;-40
2021/04/03 11:38:03;;;;;;;3.40;2.80;;;7.30;99.90;;;;;;5124841;28;20214;-39
2021/04/03 11:40:33;;;;;;;3.42;2.90;;;7.30;99.90;;;;;;5124563;28;20207;-40
2021/04/03 11:43:05;;;;;;;3.97;3.55;;;7.30;99.90;;;;;;5123838;28;20216;-40
2021/04/03 11:45:35;;;;;;;3.78;3.10;;;7.20;99.90;;;;;;5124948;28;20188;-40
2021/04/03 11:48:05;;;;;;;4.85;3.50;;;7.20;99.90;;;;;;5124205;28;20200;-38
2021/04/03 11:50:36;;;;;;;3.55;3.20;;;7.30;99.90;;;;;;5124153;28;20223;-39
2021/04/03 11:53:09;;;;;;;2.90;2.70;;;7.20;99.90;;;;;;5124216;28;20203;-39
2021/04/03 11:55:39;;;;;;;4.22;3.35;;;7.20;99.90;;;;;;5124171;28;20200;-39
2021/04/03 11:58:10;;;;;;;4.47;3.20;;;7.20;99.90;;;;;;5123482;28;20199;-38
2021/04/03 12:00:40;;;;;;;4.50;3.55;;;7.10;99.90;;;;;;5123942;28;20196;-40
2021/04/03 12:03:10;;;;;;;4.43;3.75;;;7.10;99.90;;;;;;5124089;28;20200;-40
2021/04/03 12:05:40;;;;;;;5.82;3.85;;;7.10;99.90;;;;;;5124125;28;20265;-39
2021/04/03 12:08:10;;;;;;;4.93;3.88;;;7.10;99.90;;;;;;5103830;28;20341;-38
2021/04/03 12:10:40;;;;;;;4.30;3.90;;;7.10;99.90;;;;;;5118893;28;20776;-40
2021/04/03 12:13:12;;;;;;;6.15;3.78;;;7.10;99.90;;;;;;5123193;28;20200;-39
2021/04/03 12:15:42;;;;;;;4.20;3.80;;;7.10;99.90;;;;;;5123916;28;20204;-38
2021/04/03 12:18:12;;;;;;;6.05;3.92;;;7.10;99.90;;;;;;5124098;28;20666;-39
2021/04/03 12:20:43;;;;;;;4.40;3.97;;;7.10;99.90;;;;;;5123773;28;20295;-39
2021/04/03 12:23:13;;;;;;;4.10;3.72;;;7.00;99.90;;;;;;5123174;28;20211;-40
2021/04/03 12:25:43;;;;;;;4.45;2.90;;;7.00;99.90;;;;;;5124093;28;20230;-41
2021/04/03 12:28:14;;;;;;;3.95;3.45;;;6.90;99.90;;;;;;5123243;28;20279;-40
2021/04/03 12:30:44;;;;;;;4.43;3.67;;;6.90;99.90;;;;;;5124039;28;20234;-40
2021/04/03 12:33:32;;;;;;;3.38;3.13;;;6.80;99.90;;;;;;5123297;28;20204;-38
2021/04/03 12:36:02;;;;;;;5.32;4.20;;;6.80;99.90;;;;;;5122139;28;20204;-40
2021/04/03 12:38:32;;;;;;;3.40;3.10;;;6.80;99.90;;;;;;5123516;28;20260;-39
2021/04/03 12:41:03;;;;;;;4.00;3.00;;;6.70;99.90;;;;;;5123829;28;20192;-40
2021/04/03 12:43:38;;;;;;;4.47;4.07;;;6.70;99.90;;;;;;5123052;28;20227;-39
2021/04/03 12:46:27;;;;;;;5.65;4.53;;;6.70;99.90;;;;;;5123691;28;20340;-39
2021/04/03 12:48:57;;;;;;;7.03;3.55;;;6.60;99.90;;;;;;5123197;28;20238;-37
2021/04/03 12:51:27;;;;;;;3.63;3.33;;;6.60;99.90;;;;;;5122993;28;20226;-41
2021/04/03 12:53:57;;;;;;;6.55;4.40;;;6.50;99.90;;;;;;5123468;28;20284;-40
2021/04/03 12:56:28;;;;;;;7.20;4.28;;;6.40;99.90;;;;;;5122657;28;20221;-39
2021/04/03 12:59:00;;;;;;;4.68;4.05;;;6.50;99.90;;;;;;5123503;28;20199;-39
2021/04/03 13:01:30;;;;;;;8.70;3.90;;;6.50;99.90;;;;;;5122663;28;20233;-36
2021/04/03 13:04:00;;;;;;;4.18;3.83;;;6.50;99.90;;;;;;5123390;28;20506;-37
2021/04/03 13:06:30;;;;;;;4.72;4.25;;;6.50;99.90;;;;;;5123359;28;20210;-40
2021/04/03 13:09:00;;;;;;;4.93;4.15;;;6.50;99.90;;;;;;5123786;28;20223;-40
2021/04/03 13:11:30;;;;;;;4.45;4.03;;;6.60;99.90;;;;;;5122736;28;20253;-40
2021/04/03 13:14:02;;;;;;;5.97;4.65;;;6.50;99.90;;;;;;5123427;28;20200;-40
2021/04/03 13:16:32;;;;;;;4.97;4.43;;;6.50;99.90;;;;;;5123148;28;20269;-38
2021/04/03 13:19:02;;;;;;;4.80;4.30;;;6.50;99.90;;;;;;5123628;28;20308;-40